sensor_id;sensor_type;location;lat;lon;timestamp;P1;durP1;ratioP1;P2;durP2;ratioP2
81310;SDS011;70779;52.506;5.492;2023-07-02T00:01:48;14.10;;;3.88;;
81310;SDS011;70779;52.506;5.492;2023-07-02T00:04:14;16.80;;;3.92;;
81310;SDS011;70779;52.506;5.492;2023-07-02T00:06:45;15.20;;;3.92;;
81310;SDS011;70779;52.506;5.492;2023-07-02T00:09:12;11.82;;;3.85;;
81310;SDS011;70779;52.506;5.492;2023-07-02T00:11:40;9.98;;;4.38;;
81310;SDS011;70779;52.506;5.492;2023-07-02T00:14:07;9.50;;;4.15;;
81310;SDS011;70779;52.506;5.492;2023-07-02T00:16:35;14.48;;;4.03;;
81310;SDS011;70779;52.506;5.492;2023-07-02T00:19:03;14.95;;;4.70;;
81310;SDS011;70779;52.506;5.492;2023-07-02T00:21:30;12.18;;;3.80;;
81310;SDS011;70779;52.506;5.492;2023-07-02T00:23:59;14.93;;;4.70;;
81310;SDS011;70779;52.506;5.492;2023-07-02T00:26:26;15.73;;;5.22;;
81310;SDS011;70779;52.506;5.492;2023-07-02T00:28:53;16.88;;;4.70;;
81310;SDS011;70779;52.506;5.492;2023-07-02T00:31:20;12.00;;;4.40;;
81310;SDS011;70779;52.506;5.492;2023-07-02T00:33:47;12.65;;;4.43;;
81310;SDS011;70779;52.506;5.492;2023-07-02T00:36:14;12.57;;;4.32;;
81310;SDS011;70779;52.506;5.492;2023-07-02T00:38:47;14.55;;;3.80;;
81310;SDS011;70779;52.506;5.492;2023-07-02T00:41:14;14.68;;;4.38;;
81310;SDS011;70779;52.506;5.492;2023-07-02T00:43:41;18.00;;;4.57;;
81310;SDS011;70779;52.506;5.492;2023-07-02T00:46:13;13.52;;;3.83;;
81310;SDS011;70779;52.506;5.492;2023-07-02T00:48:46;13.65;;;3.53;;
81310;SDS011;70779;52.506;5.492;2023-07-02T00:51:13;15.48;;;4.97;;
81310;SDS011;70779;52.506;5.492;2023-07-02T00:53:41;12.60;;;4.00;;
81310;SDS011;70779;52.506;5.492;2023-07-02T00:56:09;15.73;;;4.75;;
81310;SDS011;70779;52.506;5.492;2023-07-02T00:58:37;16.50;;;4.60;;
81310;SDS011;70779;52.506;5.492;2023-07-02T01:01:06;16.10;;;4.32;;
81310;SDS011;70779;52.506;5.492;2023-07-02T01:03:33;16.48;;;5.43;;
81310;SDS011;70779;52.506;5.492;2023-07-02T01:06:02;16.40;;;4.53;;
81310;SDS011;70779;52.506;5.492;2023-07-02T01:08:29;17.10;;;4.22;;
81310;SDS011;70779;52.506;5.492;2023-07-02T01:10:55;17.05;;;4.45;;
81310;SDS011;70779;52.506;5.492;2023-07-02T01:13:23;13.02;;;3.80;;
81310;SDS011;70779;52.506;5.492;2023-07-02T01:15:51;13.85;;;4.22;;
81310;SDS011;70779;52.506;5.492;2023-07-02T01:18:17;16.75;;;5.50;;
81310;SDS011;70779;52.506;5.492;2023-07-02T01:20:43;15.15;;;4.40;;
81310;SDS011;70779;52.506;5.492;2023-07-02T01:23:10;17.75;;;4.72;;
81310;SDS011;70779;52.506;5.492;2023-07-02T01:25:37;12.60;;;4.28;;
81310;SDS011;70779;52.506;5.492;2023-07-02T01:28:04;16.27;;;4.35;;
81310;SDS011;70779;52.506;5.492;2023-07-02T01:30:30;16.10;;;4.80;;
81310;SDS011;70779;52.506;5.492;2023-07-02T01:32:56;12.68;;;4.53;;
81310;SDS011;70779;52.506;5.492;2023-07-02T01:35:22;15.77;;;4.93;;
81310;SDS011;70779;52.506;5.492;2023-07-02T01:37:48;16.52;;;4.47;;
81310;SDS011;70779;52.506;5.492;2023-07-02T01:40:14;16.77;;;4.43;;
81310;SDS011;70779;52.506;5.492;2023-07-02T01:42:40;17.02;;;4.10;;
81310;SDS011;70779;52.506;5.492;2023-07-02T01:45:07;15.10;;;4.85;;
81310;SDS011;70779;52.506;5.492;2023-07-02T01:47:33;13.10;;;4.25;;
81310;SDS011;70779;52.506;5.492;2023-07-02T01:49:59;17.42;;;4.80;;
81310;SDS011;70779;52.506;5.492;2023-07-02T01:52:25;16.58;;;4.38;;
81310;SDS011;70779;52.506;5.492;2023-07-02T01:54:52;16.02;;;4.97;;
81310;SDS011;70779;52.506;5.492;2023-07-02T01:57:18;19.02;;;4.95;;
81310;SDS011;70779;52.506;5.492;2023-07-02T01:59:44;12.98;;;4.85;;
81310;SDS011;70779;52.506;5.492;2023-07-02T02:02:10;18.77;;;4.82;;
81310;SDS011;70779;52.506;5.492;2023-07-02T02:04:36;19.15;;;5.18;;
81310;SDS011;70779;52.506;5.492;2023-07-02T02:07:02;17.02;;;4.38;;
81310;SDS011;70779;52.506;5.492;2023-07-02T02:09:29;17.55;;;4.40;;
81310;SDS011;70779;52.506;5.492;2023-07-02T02:11:57;15.30;;;4.70;;
81310;SDS011;70779;52.506;5.492;2023-07-02T02:14:24;16.42;;;4.60;;
81310;SDS011;70779;52.506;5.492;2023-07-02T02:16:50;16.48;;;4.15;;
81310;SDS011;70779;52.506;5.492;2023-07-02T02:19:16;14.82;;;4.20;;
81310;SDS011;70779;52.506;5.492;2023-07-02T02:21:42;10.65;;;3.67;;
81310;SDS011;70779;52.506;5.492;2023-07-02T02:24:09;17.23;;;4.63;;
81310;SDS011;70779;52.506;5.492;2023-07-02T02:26:36;13.60;;;4.07;;
81310;SDS011;70779;52.506;5.492;2023-07-02T02:29:02;16.85;;;5.05;;
81310;SDS011;70779;52.506;5.492;2023-07-02T02:31:29;11.68;;;4.20;;
81310;SDS011;70779;52.506;5.492;2023-07-02T02:33:55;12.38;;;4.55;;
81310;SDS011;70779;52.506;5.492;2023-07-02T02:36:22;15.80;;;4.43;;
81310;SDS011;70779;52.506;5.492;2023-07-02T02:38:48;11.70;;;3.67;;
81310;SDS011;70779;52.506;5.492;2023-07-02T02:41:15;14.52;;;4.28;;
81310;SDS011;70779;52.506;5.492;2023-07-02T02:43:46;15.50;;;4.65;;
81310;SDS011;70779;52.506;5.492;2023-07-02T02:46:19;15.77;;;4.95;;
81310;SDS011;70779;52.506;5.492;2023-07-02T02:48:49;13.50;;;4.43;;
81310;SDS011;70779;52.506;5.492;2023-07-02T02:51:17;18.23;;;4.82;;
81310;SDS011;70779;52.506;5.492;2023-07-02T02:53:43;15.82;;;4.57;;
81310;SDS011;70779;52.506;5.492;2023-07-02T02:56:09;12.45;;;4.30;;
81310;SDS011;70779;52.506;5.492;2023-07-02T02:58:35;13.52;;;4.38;;
81310;SDS011;70779;52.506;5.492;2023-07-02T03:01:01;12.88;;;4.47;;
81310;SDS011;70779;52.506;5.492;2023-07-02T03:03:27;13.93;;;4.95;;
81310;SDS011;70779;52.506;5.492;2023-07-02T03:05:53;19.15;;;4.63;;
81310;SDS011;70779;52.506;5.492;2023-07-02T03:08:19;15.48;;;4.50;;
81310;SDS011;70779;52.506;5.492;2023-07-02T03:10:45;13.70;;;4.60;;
81310;SDS011;70779;52.506;5.492;2023-07-02T03:13:12;14.13;;;4.35;;
81310;SDS011;70779;52.506;5.492;2023-07-02T03:15:38;12.23;;;5.03;;
81310;SDS011;70779;52.506;5.492;2023-07-02T03:18:04;18.92;;;4.50;;
81310;SDS011;70779;52.506;5.492;2023-07-02T03:20:30;13.98;;;4.65;;
81310;SDS011;70779;52.506;5.492;2023-07-02T03:22:56;14.27;;;4.20;;
81310;SDS011;70779;52.506;5.492;2023-07-02T03:25:22;15.10;;;4.28;;
81310;SDS011;70779;52.506;5.492;2023-07-02T03:27:48;18.73;;;4.30;;
81310;SDS011;70779;52.506;5.492;2023-07-02T03:30:15;12.75;;;3.95;;
81310;SDS011;70779;52.506;5.492;2023-07-02T03:32:41;11.57;;;3.42;;
81310;SDS011;70779;52.506;5.492;2023-07-02T03:35:07;13.15;;;4.20;;
81310;SDS011;70779;52.506;5.492;2023-07-02T03:37:33;17.35;;;4.60;;
81310;SDS011;70779;52.506;5.492;2023-07-02T03:39:59;19.58;;;4.80;;
81310;SDS011;70779;52.506;5.492;2023-07-02T03:42:25;16.83;;;4.80;;
81310;SDS011;70779;52.506;5.492;2023-07-02T03:44:51;13.57;;;4.28;;
81310;SDS011;70779;52.506;5.492;2023-07-02T03:47:17;18.13;;;4.55;;
81310;SDS011;70779;52.506;5.492;2023-07-02T03:49:45;22.20;;;5.68;;
81310;SDS011;70779;52.506;5.492;2023-07-02T03:52:11;14.85;;;4.45;;
81310;SDS011;70779;52.506;5.492;2023-07-02T03:54:37;16.98;;;4.95;;
81310;SDS011;70779;52.506;5.492;2023-07-02T03:57:03;17.98;;;5.07;;
81310;SDS011;70779;52.506;5.492;2023-07-02T03:59:29;17.75;;;4.25;;
81310;SDS011;70779;52.506;5.492;2023-07-02T04:01:56;16.15;;;4.78;;
81310;SDS011;70779;52.506;5.492;2023-07-02T04:04:22;16.75;;;5.07;;
81310;SDS011;70779;52.506;5.492;2023-07-02T04:06:48;20.00;;;4.75;;
81310;SDS011;70779;52.506;5.492;2023-07-02T04:09:14;17.80;;;5.22;;
81310;SDS011;70779;52.506;5.492;2023-07-02T04:11:40;18.05;;;4.72;;
81310;SDS011;70779;52.506;5.492;2023-07-02T04:14:06;18.63;;;4.80;;
81310;SDS011;70779;52.506;5.492;2023-07-02T04:16:32;15.40;;;4.82;;
81310;SDS011;70779;52.506;5.492;2023-07-02T04:18:58;21.85;;;5.13;;
81310;SDS011;70779;52.506;5.492;2023-07-02T04:21:24;15.18;;;5.32;;
81310;SDS011;70779;52.506;5.492;2023-07-02T04:23:50;14.65;;;4.85;;
81310;SDS011;70779;52.506;5.492;2023-07-02T04:26:17;17.52;;;4.85;;
81310;SDS011;70779;52.506;5.492;2023-07-02T04:28:43;15.38;;;4.90;;
81310;SDS011;70779;52.506;5.492;2023-07-02T04:31:09;20.20;;;5.20;;
81310;SDS011;70779;52.506;5.492;2023-07-02T04:33:35;15.38;;;4.47;;
81310;SDS011;70779;52.506;5.492;2023-07-02T04:36:04;20.58;;;5.28;;
81310;SDS011;70779;52.506;5.492;2023-07-02T04:38:31;17.17;;;4.78;;
81310;SDS011;70779;52.506;5.492;2023-07-02T04:40:57;16.95;;;4.57;;
81310;SDS011;70779;52.506;5.492;2023-07-02T04:43:27;15.57;;;4.25;;
81310;SDS011;70779;52.506;5.492;2023-07-02T04:45:55;16.27;;;5.18;;
81310;SDS011;70779;52.506;5.492;2023-07-02T04:48:21;17.50;;;4.43;;
81310;SDS011;70779;52.506;5.492;2023-07-02T04:50:48;19.55;;;5.32;;
81310;SDS011;70779;52.506;5.492;2023-07-02T04:53:14;16.83;;;5.00;;
81310;SDS011;70779;52.506;5.492;2023-07-02T04:55:40;18.20;;;5.88;;
81310;SDS011;70779;52.506;5.492;2023-07-02T04:58:06;17.90;;;4.20;;
81310;SDS011;70779;52.506;5.492;2023-07-02T05:00:32;17.63;;;4.55;;
81310;SDS011;70779;52.506;5.492;2023-07-02T05:02:59;17.25;;;4.63;;
81310;SDS011;70779;52.506;5.492;2023-07-02T05:05:25;17.52;;;5.07;;
81310;SDS011;70779;52.506;5.492;2023-07-02T05:07:51;16.35;;;5.05;;
81310;SDS011;70779;52.506;5.492;2023-07-02T05:10:17;17.40;;;5.30;;
81310;SDS011;70779;52.506;5.492;2023-07-02T05:12:43;16.70;;;4.28;;
81310;SDS011;70779;52.506;5.492;2023-07-02T05:15:09;15.23;;;3.80;;
81310;SDS011;70779;52.506;5.492;2023-07-02T05:17:37;11.70;;;4.50;;
81310;SDS011;70779;52.506;5.492;2023-07-02T05:20:03;18.80;;;4.07;;
81310;SDS011;70779;52.506;5.492;2023-07-02T05:22:30;16.52;;;4.97;;
81310;SDS011;70779;52.506;5.492;2023-07-02T05:24:56;20.27;;;4.28;;
81310;SDS011;70779;52.506;5.492;2023-07-02T05:27:22;16.52;;;5.07;;
81310;SDS011;70779;52.506;5.492;2023-07-02T05:29:49;14.60;;;3.75;;
81310;SDS011;70779;52.506;5.492;2023-07-02T05:32:15;18.80;;;5.88;;
81310;SDS011;70779;52.506;5.492;2023-07-02T05:34:41;12.45;;;4.22;;
81310;SDS011;70779;52.506;5.492;2023-07-02T05:37:07;15.05;;;3.90;;
81310;SDS011;70779;52.506;5.492;2023-07-02T05:39:33;14.65;;;4.00;;
81310;SDS011;70779;52.506;5.492;2023-07-02T05:41:59;14.10;;;4.32;;
81310;SDS011;70779;52.506;5.492;2023-07-02T05:44:26;11.85;;;4.25;;
81310;SDS011;70779;52.506;5.492;2023-07-02T05:46:52;13.20;;;4.28;;
81310;SDS011;70779;52.506;5.492;2023-07-02T05:49:18;14.75;;;4.05;;
81310;SDS011;70779;52.506;5.492;2023-07-02T05:51:44;23.45;;;4.65;;
81310;SDS011;70779;52.506;5.492;2023-07-02T05:54:10;14.13;;;3.70;;
81310;SDS011;70779;52.506;5.492;2023-07-02T05:56:36;13.32;;;4.40;;
81310;SDS011;70779;52.506;5.492;2023-07-02T05:59:02;14.80;;;4.10;;
81310;SDS011;70779;52.506;5.492;2023-07-02T06:01:28;15.48;;;4.15;;
81310;SDS011;70779;52.506;5.492;2023-07-02T06:03:54;15.55;;;4.25;;
81310;SDS011;70779;52.506;5.492;2023-07-02T06:06:21;16.00;;;4.07;;
81310;SDS011;70779;52.506;5.492;2023-07-02T06:08:50;16.63;;;3.95;;
81310;SDS011;70779;52.506;5.492;2023-07-02T06:11:17;16.33;;;4.13;;
81310;SDS011;70779;52.506;5.492;2023-07-02T06:13:43;12.68;;;3.60;;
81310;SDS011;70779;52.506;5.492;2023-07-02T06:16:09;11.07;;;3.05;;
81310;SDS011;70779;52.506;5.492;2023-07-02T06:18:35;15.25;;;4.00;;
81310;SDS011;70779;52.506;5.492;2023-07-02T06:21:01;12.32;;;2.58;;
81310;SDS011;70779;52.506;5.492;2023-07-02T06:23:29;10.82;;;3.40;;
81310;SDS011;70779;52.506;5.492;2023-07-02T06:25:55;6.70;;;2.47;;
81310;SDS011;70779;52.506;5.492;2023-07-02T06:28:25;10.20;;;2.70;;
81310;SDS011;70779;52.506;5.492;2023-07-02T06:30:52;14.02;;;3.53;;
81310;SDS011;70779;52.506;5.492;2023-07-02T06:33:18;15.38;;;3.83;;
81310;SDS011;70779;52.506;5.492;2023-07-02T06:35:44;11.30;;;3.20;;
81310;SDS011;70779;52.506;5.492;2023-07-02T06:38:10;17.67;;;4.03;;
81310;SDS011;70779;52.506;5.492;2023-07-02T06:40:36;10.50;;;3.45;;
81310;SDS011;70779;52.506;5.492;2023-07-02T06:43:02;10.05;;;3.20;;
81310;SDS011;70779;52.506;5.492;2023-07-02T06:45:28;9.93;;;3.80;;
81310;SDS011;70779;52.506;5.492;2023-07-02T06:47:54;10.05;;;3.00;;
81310;SDS011;70779;52.506;5.492;2023-07-02T06:50:20;12.50;;;3.13;;
81310;SDS011;70779;52.506;5.492;2023-07-02T06:52:48;12.07;;;3.53;;
81310;SDS011;70779;52.506;5.492;2023-07-02T06:55:14;9.38;;;3.38;;
81310;SDS011;70779;52.506;5.492;2023-07-02T06:57:44;13.73;;;4.20;;
81310;SDS011;70779;52.506;5.492;2023-07-02T07:00:13;11.45;;;3.67;;
81310;SDS011;70779;52.506;5.492;2023-07-02T07:02:40;12.20;;;3.55;;
81310;SDS011;70779;52.506;5.492;2023-07-02T07:05:07;19.10;;;4.07;;
81310;SDS011;70779;52.506;5.492;2023-07-02T07:07:34;13.13;;;3.63;;
81310;SDS011;70779;52.506;5.492;2023-07-02T07:10:00;10.18;;;3.58;;
81310;SDS011;70779;52.506;5.492;2023-07-02T07:12:27;10.35;;;3.05;;
81310;SDS011;70779;52.506;5.492;2023-07-02T07:14:53;15.73;;;3.25;;
81310;SDS011;70779;52.506;5.492;2023-07-02T07:17:19;12.23;;;3.17;;
81310;SDS011;70779;52.506;5.492;2023-07-02T07:19:45;14.48;;;3.45;;
81310;SDS011;70779;52.506;5.492;2023-07-02T07:22:13;10.85;;;2.70;;
81310;SDS011;70779;52.506;5.492;2023-07-02T07:24:41;12.30;;;3.33;;
81310;SDS011;70779;52.506;5.492;2023-07-02T07:27:07;6.60;;;2.33;;
81310;SDS011;70779;52.506;5.492;2023-07-02T07:29:33;10.55;;;2.65;;
81310;SDS011;70779;52.506;5.492;2023-07-02T07:31:59;11.38;;;3.30;;
81310;SDS011;70779;52.506;5.492;2023-07-02T07:34:25;11.80;;;2.83;;
81310;SDS011;70779;52.506;5.492;2023-07-02T07:36:51;10.95;;;3.17;;
81310;SDS011;70779;52.506;5.492;2023-07-02T07:39:18;11.60;;;3.42;;
81310;SDS011;70779;52.506;5.492;2023-07-02T07:41:47;14.40;;;3.75;;
81310;SDS011;70779;52.506;5.492;2023-07-02T07:44:14;12.07;;;2.80;;
81310;SDS011;70779;52.506;5.492;2023-07-02T07:46:40;10.32;;;2.85;;
81310;SDS011;70779;52.506;5.492;2023-07-02T07:49:06;15.07;;;3.90;;
81310;SDS011;70779;52.506;5.492;2023-07-02T07:51:32;17.13;;;3.90;;
81310;SDS011;70779;52.506;5.492;2023-07-02T07:54:01;10.43;;;3.30;;
81310;SDS011;70779;52.506;5.492;2023-07-02T07:56:28;9.15;;;2.95;;
81310;SDS011;70779;52.506;5.492;2023-07-02T07:58:54;11.88;;;3.33;;
81310;SDS011;70779;52.506;5.492;2023-07-02T08:01:20;9.48;;;2.78;;
81310;SDS011;70779;52.506;5.492;2023-07-02T08:03:46;9.00;;;2.75;;
81310;SDS011;70779;52.506;5.492;2023-07-02T08:06:12;10.18;;;3.38;;
81310;SDS011;70779;52.506;5.492;2023-07-02T08:08:38;8.52;;;3.00;;
81310;SDS011;70779;52.506;5.492;2023-07-02T08:11:04;9.63;;;3.03;;
81310;SDS011;70779;52.506;5.492;2023-07-02T08:13:30;9.30;;;2.63;;
81310;SDS011;70779;52.506;5.492;2023-07-02T08:15:57;9.25;;;2.65;;
81310;SDS011;70779;52.506;5.492;2023-07-02T08:18:23;12.00;;;3.42;;
81310;SDS011;70779;52.506;5.492;2023-07-02T08:20:49;12.05;;;3.40;;
81310;SDS011;70779;52.506;5.492;2023-07-02T08:23:15;11.07;;;3.25;;
81310;SDS011;70779;52.506;5.492;2023-07-02T08:25:41;8.05;;;3.05;;
81310;SDS011;70779;52.506;5.492;2023-07-02T08:28:07;10.00;;;3.67;;
81310;SDS011;70779;52.506;5.492;2023-07-02T08:30:33;12.15;;;4.60;;
81310;SDS011;70779;52.506;5.492;2023-07-02T08:32:59;12.48;;;3.75;;
81310;SDS011;70779;52.506;5.492;2023-07-02T08:35:25;10.93;;;3.50;;
81310;SDS011;70779;52.506;5.492;2023-07-02T08:37:51;11.02;;;3.80;;
81310;SDS011;70779;52.506;5.492;2023-07-02T08:40:18;8.15;;;3.45;;
81310;SDS011;70779;52.506;5.492;2023-07-02T08:42:45;10.82;;;3.65;;
81310;SDS011;70779;52.506;5.492;2023-07-02T08:45:15;8.82;;;3.80;;
81310;SDS011;70779;52.506;5.492;2023-07-02T08:47:43;10.48;;;3.83;;
81310;SDS011;70779;52.506;5.492;2023-07-02T08:50:11;10.40;;;3.92;;
81310;SDS011;70779;52.506;5.492;2023-07-02T08:52:38;9.95;;;3.60;;
81310;SDS011;70779;52.506;5.492;2023-07-02T08:55:04;10.55;;;2.85;;
81310;SDS011;70779;52.506;5.492;2023-07-02T08:57:31;11.60;;;3.40;;
81310;SDS011;70779;52.506;5.492;2023-07-02T08:59:57;7.07;;;2.72;;
81310;SDS011;70779;52.506;5.492;2023-07-02T09:02:29;11.25;;;2.90;;
81310;SDS011;70779;52.506;5.492;2023-07-02T09:05:00;9.18;;;2.70;;
81310;SDS011;70779;52.506;5.492;2023-07-02T09:07:27;9.90;;;2.63;;
81310;SDS011;70779;52.506;5.492;2023-07-02T09:09:53;7.05;;;2.28;;
81310;SDS011;70779;52.506;5.492;2023-07-02T09:14:56;13.77;;;2.95;;
81310;SDS011;70779;52.506;5.492;2023-07-02T09:17:37;8.00;;;2.47;;
81310;SDS011;70779;52.506;5.492;2023-07-02T09:20:04;8.25;;;2.60;;
81310;SDS011;70779;52.506;5.492;2023-07-02T09:22:34;12.02;;;2.90;;
81310;SDS011;70779;52.506;5.492;2023-07-02T09:25:01;6.50;;;2.58;;
81310;SDS011;70779;52.506;5.492;2023-07-02T09:27:34;9.65;;;2.95;;
81310;SDS011;70779;52.506;5.492;2023-07-02T09:30:15;7.00;;;2.65;;
81310;SDS011;70779;52.506;5.492;2023-07-02T09:35:08;10.23;;;2.65;;
81310;SDS011;70779;52.506;5.492;2023-07-02T09:37:34;8.85;;;2.90;;
81310;SDS011;70779;52.506;5.492;2023-07-02T09:40:00;11.52;;;2.75;;
81310;SDS011;70779;52.506;5.492;2023-07-02T09:42:28;8.00;;;2.78;;
81310;SDS011;70779;52.506;5.492;2023-07-02T09:44:55;10.05;;;3.08;;
81310;SDS011;70779;52.506;5.492;2023-07-02T09:47:23;9.32;;;2.72;;
81310;SDS011;70779;52.506;5.492;2023-07-02T09:49:55;7.53;;;3.00;;
81310;SDS011;70779;52.506;5.492;2023-07-02T09:52:25;10.73;;;3.20;;
81310;SDS011;70779;52.506;5.492;2023-07-02T09:54:53;10.38;;;3.35;;
81310;SDS011;70779;52.506;5.492;2023-07-02T09:57:19;10.15;;;3.22;;
81310;SDS011;70779;52.506;5.492;2023-07-02T09:59:45;9.05;;;3.13;;
81310;SDS011;70779;52.506;5.492;2023-07-02T10:02:12;7.28;;;2.65;;
81310;SDS011;70779;52.506;5.492;2023-07-02T10:04:39;6.93;;;2.55;;
81310;SDS011;70779;52.506;5.492;2023-07-02T10:07:10;10.30;;;3.03;;
81310;SDS011;70779;52.506;5.492;2023-07-02T10:09:37;9.25;;;2.95;;
81310;SDS011;70779;52.506;5.492;2023-07-02T10:12:14;8.13;;;2.63;;
81310;SDS011;70779;52.506;5.492;2023-07-02T10:14:51;6.50;;;2.60;;
81310;SDS011;70779;52.506;5.492;2023-07-02T10:17:25;9.13;;;3.00;;
81310;SDS011;70779;52.506;5.492;2023-07-02T10:20:02;6.82;;;2.53;;
81310;SDS011;70779;52.506;5.492;2023-07-02T10:22:49;8.63;;;2.65;;
81310;SDS011;70779;52.506;5.492;2023-07-02T10:25:26;8.57;;;2.38;;
81310;SDS011;70779;52.506;5.492;2023-07-02T10:27:53;8.57;;;2.63;;
81310;SDS011;70779;52.506;5.492;2023-07-02T10:30:30;8.80;;;2.63;;
81310;SDS011;70779;52.506;5.492;2023-07-02T10:33:07;9.38;;;2.50;;
81310;SDS011;70779;52.506;5.492;2023-07-02T10:35:38;5.10;;;2.28;;
81310;SDS011;70779;52.506;5.492;2023-07-02T10:38:07;5.28;;;2.10;;
81310;SDS011;70779;52.506;5.492;2023-07-02T10:40:40;6.40;;;2.30;;
81310;SDS011;70779;52.506;5.492;2023-07-02T10:43:08;6.57;;;2.47;;
81310;SDS011;70779;52.506;5.492;2023-07-02T10:45:34;8.20;;;2.70;;
81310;SDS011;70779;52.506;5.492;2023-07-02T10:48:02;8.95;;;3.05;;
81310;SDS011;70779;52.506;5.492;2023-07-02T10:50:30;5.57;;;2.13;;
81310;SDS011;70779;52.506;5.492;2023-07-02T10:52:57;7.22;;;2.60;;
81310;SDS011;70779;52.506;5.492;2023-07-02T10:55:24;5.85;;;2.20;;
81310;SDS011;70779;52.506;5.492;2023-07-02T10:58:01;6.93;;;2.00;;
81310;SDS011;70779;52.506;5.492;2023-07-02T11:00:29;4.40;;;2.25;;
81310;SDS011;70779;52.506;5.492;2023-07-02T11:02:55;9.02;;;2.30;;
81310;SDS011;70779;52.506;5.492;2023-07-02T11:05:21;6.22;;;2.17;;
81310;SDS011;70779;52.506;5.492;2023-07-02T11:07:48;4.65;;;2.08;;
81310;SDS011;70779;52.506;5.492;2023-07-02T11:10:20;7.95;;;2.63;;
81310;SDS011;70779;52.506;5.492;2023-07-02T11:12:46;5.75;;;2.33;;
81310;SDS011;70779;52.506;5.492;2023-07-02T11:15:15;7.57;;;2.60;;
81310;SDS011;70779;52.506;5.492;2023-07-02T11:17:45;8.75;;;2.38;;
81310;SDS011;70779;52.506;5.492;2023-07-02T11:20:12;9.45;;;2.75;;
81310;SDS011;70779;52.506;5.492;2023-07-02T11:22:39;6.88;;;2.42;;
81310;SDS011;70779;52.506;5.492;2023-07-02T11:25:13;6.88;;;2.28;;
81310;SDS011;70779;52.506;5.492;2023-07-02T11:27:43;7.93;;;2.65;;
81310;SDS011;70779;52.506;5.492;2023-07-02T11:30:10;8.23;;;2.80;;
81310;SDS011;70779;52.506;5.492;2023-07-02T11:32:53;8.95;;;2.78;;
81310;SDS011;70779;52.506;5.492;2023-07-02T11:35:20;9.05;;;2.90;;
81310;SDS011;70779;52.506;5.492;2023-07-02T11:37:48;9.32;;;2.60;;
81310;SDS011;70779;52.506;5.492;2023-07-02T11:40:16;7.88;;;2.90;;
81310;SDS011;70779;52.506;5.492;2023-07-02T11:42:43;9.75;;;2.95;;
81310;SDS011;70779;52.506;5.492;2023-07-02T11:45:09;8.68;;;3.13;;
81310;SDS011;70779;52.506;5.492;2023-07-02T11:47:35;7.55;;;2.83;;
81310;SDS011;70779;52.506;5.492;2023-07-02T11:50:03;7.40;;;2.42;;
81310;SDS011;70779;52.506;5.492;2023-07-02T11:52:30;8.65;;;3.08;;
81310;SDS011;70779;52.506;5.492;2023-07-02T11:54:56;8.07;;;2.60;;
81310;SDS011;70779;52.506;5.492;2023-07-02T11:57:22;7.00;;;3.08;;
81310;SDS011;70779;52.506;5.492;2023-07-02T11:59:48;6.55;;;2.88;;
81310;SDS011;70779;52.506;5.492;2023-07-02T12:02:15;8.63;;;3.22;;
81310;SDS011;70779;52.506;5.492;2023-07-02T12:04:41;7.18;;;2.65;;
81310;SDS011;70779;52.506;5.492;2023-07-02T12:07:08;10.10;;;2.83;;
81310;SDS011;70779;52.506;5.492;2023-07-02T12:09:35;8.90;;;2.88;;
81310;SDS011;70779;52.506;5.492;2023-07-02T12:12:02;6.38;;;3.03;;
81310;SDS011;70779;52.506;5.492;2023-07-02T12:14:28;8.82;;;3.15;;
81310;SDS011;70779;52.506;5.492;2023-07-02T12:16:55;6.07;;;2.80;;
81310;SDS011;70779;52.506;5.492;2023-07-02T12:19:21;9.18;;;2.50;;
81310;SDS011;70779;52.506;5.492;2023-07-02T12:21:47;7.15;;;3.10;;
81310;SDS011;70779;52.506;5.492;2023-07-02T12:24:13;3.85;;;1.70;;
81310;SDS011;70779;52.506;5.492;2023-07-02T12:26:39;5.43;;;2.40;;
81310;SDS011;70779;52.506;5.492;2023-07-02T12:29:06;6.43;;;2.50;;
81310;SDS011;70779;52.506;5.492;2023-07-02T12:31:32;7.55;;;2.97;;
81310;SDS011;70779;52.506;5.492;2023-07-02T12:33:58;6.45;;;2.88;;
81310;SDS011;70779;52.506;5.492;2023-07-02T12:36:24;7.50;;;2.78;;
81310;SDS011;70779;52.506;5.492;2023-07-02T12:38:50;6.38;;;2.78;;
81310;SDS011;70779;52.506;5.492;2023-07-02T12:41:16;5.82;;;2.55;;
81310;SDS011;70779;52.506;5.492;2023-07-02T12:43:42;6.65;;;2.60;;
81310;SDS011;70779;52.506;5.492;2023-07-02T12:46:09;7.28;;;2.40;;
81310;SDS011;70779;52.506;5.492;2023-07-02T12:48:35;7.93;;;2.55;;
81310;SDS011;70779;52.506;5.492;2023-07-02T12:51:01;6.10;;;2.70;;
81310;SDS011;70779;52.506;5.492;2023-07-02T12:53:27;7.97;;;2.47;;
81310;SDS011;70779;52.506;5.492;2023-07-02T12:55:54;7.13;;;2.85;;
81310;SDS011;70779;52.506;5.492;2023-07-02T12:58:20;6.57;;;2.60;;
81310;SDS011;70779;52.506;5.492;2023-07-02T13:00:47;6.82;;;2.53;;
81310;SDS011;70779;52.506;5.492;2023-07-02T13:03:13;7.10;;;2.38;;
81310;SDS011;70779;52.506;5.492;2023-07-02T13:05:40;6.88;;;1.92;;
81310;SDS011;70779;52.506;5.492;2023-07-02T13:08:06;6.10;;;2.47;;
81310;SDS011;70779;52.506;5.492;2023-07-02T13:10:32;8.52;;;2.22;;
81310;SDS011;70779;52.506;5.492;2023-07-02T13:12:59;7.05;;;2.65;;
81310;SDS011;70779;52.506;5.492;2023-07-02T13:15:26;5.97;;;2.22;;
81310;SDS011;70779;52.506;5.492;2023-07-02T13:17:52;6.20;;;2.47;;
81310;SDS011;70779;52.506;5.492;2023-07-02T13:20:18;8.35;;;2.22;;
81310;SDS011;70779;52.506;5.492;2023-07-02T13:22:44;5.20;;;2.33;;
81310;SDS011;70779;52.506;5.492;2023-07-02T13:25:11;8.32;;;2.55;;
81310;SDS011;70779;52.506;5.492;2023-07-02T13:27:37;6.13;;;2.15;;
81310;SDS011;70779;52.506;5.492;2023-07-02T13:30:03;8.30;;;2.33;;
81310;SDS011;70779;52.506;5.492;2023-07-02T13:32:30;6.22;;;2.63;;
81310;SDS011;70779;52.506;5.492;2023-07-02T13:34:56;6.88;;;1.92;;
81310;SDS011;70779;52.506;5.492;2023-07-02T13:37:22;6.43;;;2.25;;
81310;SDS011;70779;52.506;5.492;2023-07-02T13:39:48;6.88;;;2.40;;
81310;SDS011;70779;52.506;5.492;2023-07-02T13:42:15;6.60;;;2.30;;
81310;SDS011;70779;52.506;5.492;2023-07-02T13:44:41;8.20;;;2.50;;
81310;SDS011;70779;52.506;5.492;2023-07-02T13:47:08;4.80;;;1.95;;
81310;SDS011;70779;52.506;5.492;2023-07-02T13:49:34;7.90;;;2.40;;
81310;SDS011;70779;52.506;5.492;2023-07-02T13:52:00;5.80;;;2.13;;
81310;SDS011;70779;52.506;5.492;2023-07-02T13:54:27;6.50;;;2.45;;
81310;SDS011;70779;52.506;5.492;2023-07-02T13:56:53;7.80;;;2.42;;
81310;SDS011;70779;52.506;5.492;2023-07-02T13:59:21;4.30;;;2.00;;
81310;SDS011;70779;52.506;5.492;2023-07-02T14:01:47;7.68;;;2.42;;
81310;SDS011;70779;52.506;5.492;2023-07-02T14:04:14;5.97;;;2.03;;
81310;SDS011;70779;52.506;5.492;2023-07-02T14:06:42;8.40;;;2.35;;
81310;SDS011;70779;52.506;5.492;2023-07-02T14:09:08;9.25;;;2.40;;
81310;SDS011;70779;52.506;5.492;2023-07-02T14:11:38;5.78;;;2.28;;
81310;SDS011;70779;52.506;5.492;2023-07-02T14:14:05;6.15;;;2.90;;
81310;SDS011;70779;52.506;5.492;2023-07-02T14:16:31;8.85;;;2.85;;
81310;SDS011;70779;52.506;5.492;2023-07-02T14:18:58;6.72;;;2.47;;
81310;SDS011;70779;52.506;5.492;2023-07-02T14:21:24;5.95;;;2.58;;
81310;SDS011;70779;52.506;5.492;2023-07-02T14:23:50;5.78;;;2.63;;
81310;SDS011;70779;52.506;5.492;2023-07-02T14:26:16;5.25;;;2.25;;
81310;SDS011;70779;52.506;5.492;2023-07-02T14:28:43;7.07;;;2.63;;
81310;SDS011;70779;52.506;5.492;2023-07-02T14:31:09;10.23;;;2.78;;
81310;SDS011;70779;52.506;5.492;2023-07-02T14:33:36;12.68;;;2.80;;
81310;SDS011;70779;52.506;5.492;2023-07-02T14:36:03;5.82;;;2.55;;
81310;SDS011;70779;52.506;5.492;2023-07-02T14:38:30;6.22;;;2.40;;
81310;SDS011;70779;52.506;5.492;2023-07-02T14:40:58;6.43;;;2.03;;
81310;SDS011;70779;52.506;5.492;2023-07-02T14:43:27;6.25;;;2.28;;
81310;SDS011;70779;52.506;5.492;2023-07-02T14:45:56;8.10;;;2.70;;